Time;durP1;ratioP1;P1;durP2;ratioP2;P2;SDS_P1;SDS_P2;PMS_P1;PMS_P2;Temp;Humidity;BMP_temperature;BMP_pressure;BME280_temperature;BME280_humidity;BME280_pressure;Samples;Min_cycle;Max_cycle;Signal;HPM_P1;HPM_P2
2023/02/06 00:01:44;;;;;;;8.02;3.22;;;;;;;5.00;71.20;100023.50;4965950;28;20402;-68
2023/02/06 00:04:10;;;;;;;9.97;3.00;;;;;;;5.03;70.76;100004.50;4973114;28;20118;-69
2023/02/06 00:06:35;;;;;;;6.63;3.00;;;;;;;5.13;70.64;100032.34;4958049;28;20050;-68
2023/02/06 00:09:02;;;;;;;6.10;2.95;;;;;;;5.10;71.15;100008.44;4962462;28;20014;-67
2023/02/06 00:11:27;;;;;;;9.60;3.25;;;;;;;5.18;70.87;100009.75;4956579;28;20038;-67
2023/02/06 00:13:53;;;;;;;5.60;3.03;;;;;;;5.21;70.41;100003.59;4970188;28;20038;-68
2023/02/06 00:16:27;;;;;;;6.35;2.85;;;;;;;5.04;70.10;99976.06;4972377;28;20527;-69
2023/02/06 00:18:53;;;;;;;7.75;3.28;;;;;;;5.20;71.12;100010.50;4961162;28;20357;-67
2023/02/06 00:21:20;;;;;;;8.63;3.72;;;;;;;5.16;71.09;100023.59;4976015;28;20554;-68
2023/02/06 00:23:50;;;;;;;7.38;3.30;;;;;;;5.26;70.73;100018.84;4977128;28;20041;-68
2023/02/06 00:26:16;;;;;;;7.15;2.90;;;;;;;5.28;71.31;100017.00;4981048;28;20030;-68
2023/02/06 00:28:42;;;;;;;8.05;3.30;;;;;;;5.25;71.46;100012.81;4981105;28;20767;-67
2023/02/06 00:31:08;;;;;;;7.30;3.15;;;;;;;5.17;71.74;100026.09;4976954;28;20034;-69
2023/02/06 00:33:33;;;;;;;8.25;3.33;;;;;;;5.18;72.40;100025.22;4984267;28;20048;-70
2023/02/06 00:35:59;;;;;;;6.60;3.20;;;;;;;5.24;72.32;100025.78;4982321;28;20031;-68
2023/02/06 00:38:24;;;;;;;9.48;3.50;;;;;;;5.16;71.70;100016.69;4977234;28;20175;-73
2023/02/06 00:40:50;;;;;;;7.75;3.78;;;;;;;5.27;71.55;100018.75;4972141;28;20161;-69
2023/02/06 00:43:15;;;;;;;10.35;3.53;;;;;;;5.30;70.54;100028.91;4977527;28;20027;-67
2023/02/06 00:45:41;;;;;;;7.47;3.80;;;;;;;4.88;71.01;100037.84;4963996;28;20034;-70
2023/02/06 00:48:08;;;;;;;7.78;4.28;;;;;;;4.86;71.66;100036.25;4975161;28;20034;-69
2023/02/06 00:50:33;;;;;;;12.43;4.82;;;;;;;4.91;71.84;100040.28;4966271;28;20034;-71
2023/02/06 00:52:59;;;;;;;10.25;3.53;;;;;;;4.65;71.39;99986.56;4967682;28;20346;-68
2023/02/06 00:55:24;;;;;;;5.82;3.10;;;;;;;5.08;71.47;100048.94;4975572;28;20034;-68
2023/02/06 00:57:50;;;;;;;8.48;3.38;;;;;;;5.13;70.60;100040.06;4960327;28;20512;-69
2023/02/06 01:00:15;;;;;;;7.13;3.25;;;;;;;5.13;70.15;100045.22;4977720;28;20579;-67
2023/02/06 01:02:41;;;;;;;7.45;3.13;;;;;;;5.05;70.99;100042.16;4969598;28;20026;-70
2023/02/06 01:05:07;;;;;;;7.20;3.22;;;;;;;4.65;70.86;99991.72;4982492;28;20128;-69
2023/02/06 01:07:32;;;;;;;5.63;2.95;;;;;;;4.48;70.58;99984.78;4967434;28;20053;-68
2023/02/06 01:09:57;;;;;;;7.93;3.03;;;;;;;4.98;71.16;100043.38;4970936;28;20098;-70
2023/02/06 01:12:23;;;;;;;7.00;3.40;;;;;;;5.11;71.00;100053.94;4982184;28;20173;-71
2023/02/06 01:14:48;;;;;;;8.00;2.78;;;;;;;4.94;71.00;100054.75;4969039;28;20390;-71
2023/02/06 01:17:14;;;;;;;6.60;2.80;;;;;;;4.98;69.98;100045.97;4979343;28;20042;-68
2023/02/06 01:19:39;;;;;;;7.25;3.15;;;;;;;4.97;70.07;100052.84;4980149;28;20046;-66
2023/02/06 01:22:05;;;;;;;6.95;3.03;;;;;;;4.82;69.68;100014.94;4969428;28;20162;-68
2023/02/06 01:24:31;;;;;;;9.27;3.03;;;;;;;4.96;69.77;100048.59;4983008;28;20113;-69
2023/02/06 01:26:56;;;;;;;7.40;2.80;;;;;;;5.13;69.56;100060.69;4962684;28;20129;-67
2023/02/06 01:29:22;;;;;;;9.35;2.90;;;;;;;5.08;69.72;100054.09;4976203;28;20053;-66
2023/02/06 01:31:47;;;;;;;7.85;3.08;;;;;;;5.04;69.38;100052.56;4982203;28;20038;-67
2023/02/06 01:34:12;;;;;;;7.60;3.03;;;;;;;5.00;69.51;100052.72;4965370;28;20347;-65
2023/02/06 01:36:38;;;;;;;7.30;3.17;;;;;;;5.06;69.47;100061.06;4980551;28;20702;-69
2023/02/06 01:39:05;;;;;;;7.90;3.10;;;;;;;5.02;69.39;100052.66;4966131;28;20042;-67
2023/02/06 01:41:30;;;;;;;7.10;2.88;;;;;;;5.01;69.36;100056.13;4980406;28;20085;-66
2023/02/06 01:44:14;;;;;;;7.18;3.13;;;;;;;4.96;69.40;100063.25;4963905;28;20034;-66
2023/02/06 01:46:44;;;;;;;6.45;2.70;;;;;;;4.96;69.67;100063.25;4966324;28;20046;-69
2023/02/06 01:49:18;;;;;;;6.20;2.78;;;;;;;5.07;68.92;100060.16;4981387;28;20022;-67
2023/02/06 01:51:44;;;;;;;8.20;2.90;;;;;;;5.08;69.34;100060.09;4982221;28;20025;-68
2023/02/06 01:54:11;;;;;;;6.28;3.15;;;;;;;5.04;69.56;100057.72;4977000;28;20493;-67
2023/02/06 01:56:42;;;;;;;10.50;3.10;;;;;;;5.06;69.59;100061.91;4962005;28;20534;-68
2023/02/06 01:59:08;;;;;;;8.35;3.00;;;;;;;4.91;69.70;100050.59;4977783;28;20022;-67
2023/02/06 02:01:33;;;;;;;7.50;3.17;;;;;;;5.09;69.06;100053.16;4982073;28;20037;-71
2023/02/06 02:04:03;;;;;;;7.45;2.60;;;;;;;5.05;68.96;100065.38;4963897;28;20045;-68
2023/02/06 02:06:29;;;;;;;5.72;2.92;;;;;;;4.96;69.71;100046.03;4980974;28;20030;-67
2023/02/06 02:08:56;;;;;;;8.77;3.60;;;;;;;5.03;69.74;100053.47;4963110;28;20093;-66
2023/02/06 02:11:33;;;;;;;5.35;2.70;;;;;;;5.08;70.09;100065.25;4977322;28;20060;-67
2023/02/06 02:13:59;;;;;;;8.75;2.78;;;;;;;4.99;68.84;100053.63;4972010;28;20031;-68
2023/02/06 02:16:41;;;;;;;8.90;2.75;;;;;;;4.62;69.00;100008.16;4982795;28;20026;-67
2023/02/06 02:19:37;;;;;;;7.72;3.20;;;;;;;4.63;68.76;100036.41;4973901;28;20481;-67
2023/02/06 02:22:30;;;;;;;5.82;2.60;;;;;;;4.81;69.39;100075.94;4972691;28;20062;-69
2023/02/06 02:25:09;;;;;;;5.68;2.70;;;;;;;4.91;68.34;100078.94;4976290;28;20039;-67
2023/02/06 02:27:52;;;;;;;5.95;2.35;;;;;;;4.95;68.24;100065.00;4978008;28;20041;-66
2023/02/06 02:30:39;;;;;;;7.55;2.60;;;;;;;5.00;68.22;100062.19;4978727;28;20073;-67
2023/02/06 02:33:17;;;;;;;6.72;2.78;;;;;;;4.82;68.91;100069.91;4973661;28;20038;-68
2023/02/06 02:36:18;;;;;;;9.52;3.30;;;;;;;4.86;68.33;100059.44;4983355;28;20042;-67
2023/02/06 02:39:09;;;;;;;7.50;2.80;;;;;;;4.58;67.33;99998.88;4997488;28;20050;-67
2023/02/06 02:41:40;;;;;;;8.32;2.53;;;;;;;4.77;68.31;100063.28;4982430;28;20030;-66
2023/02/06 02:44:17;;;;;;;6.97;2.22;;;;;;;4.76;67.73;100061.59;4975788;28;20034;-67
2023/02/06 02:46:44;;;;;;;5.95;2.53;;;;;;;4.78;67.99;100057.22;4974675;28;20038;-68
2023/02/06 02:49:15;;;;;;;6.72;2.95;;;;;;;4.77;67.16;100063.28;4968141;28;20039;-67
2023/02/06 02:51:41;;;;;;;7.38;2.58;;;;;;;4.50;67.58;100014.72;4990903;28;20038;-67
2023/02/06 02:54:07;;;;;;;7.70;2.40;;;;;;;4.66;67.71;100052.66;4976108;28;20034;-67
2023/02/06 02:56:33;;;;;;;6.40;2.38;;;;;;;4.75;67.76;100068.50;4988949;28;20136;-68
2023/02/06 02:59:22;;;;;;;6.85;2.72;;;;;;;4.80;67.69;100074.28;4977891;28;20153;-69
2023/02/06 03:01:57;;;;;;;6.28;2.30;;;;;;;4.58;67.58;100025.50;4966227;28;20046;-69
2023/02/06 03:04:52;;;;;;;7.22;2.40;;;;;;;4.81;67.30;100063.06;4957954;28;20134;-68
2023/02/06 03:07:44;;;;;;;8.07;3.00;;;;;;;4.74;67.44;100063.44;4977414;28;20140;-67
2023/02/06 03:10:24;;;;;;;5.30;2.58;;;;;;;4.70;67.41;100067.06;4965265;28;20034;-68
2023/02/06 03:13:02;;;;;;;7.18;2.47;;;;;;;4.42;67.44;100019.41;4969831;28;20035;-68
2023/02/06 03:15:44;;;;;;;7.78;2.78;;;;;;;4.80;67.34;100069.13;4976048;28;20027;-68
2023/02/06 03:18:24;;;;;;;8.35;3.00;;;;;;;4.70;66.76;100062.72;4985117;28;20449;-68
2023/02/06 03:20:50;;;;;;;6.13;2.80;;;;;;;4.82;67.19;100063.91;4975347;28;20494;-67
2023/02/06 03:23:20;;;;;;;5.60;2.50;;;;;;;4.84;66.48;100071.53;4978778;28;20038;-70
2023/02/06 03:25:50;;;;;;;7.43;2.40;;;;;;;4.80;66.19;100073.44;4977999;28;20038;-68
2023/02/06 03:28:19;;;;;;;8.27;3.05;;;;;;;4.78;66.68;100070.94;4977500;28;20068;-68
2023/02/06 03:30:47;;;;;;;7.10;3.28;;;;;;;4.87;66.63;100081.72;4975458;28;20034;-68
2023/02/06 03:33:16;;;;;;;8.30;2.67;;;;;;;4.93;66.05;100082.28;4968865;28;20050;-67
2023/02/06 03:35:42;;;;;;;5.93;2.63;;;;;;;4.79;66.86;100071.78;4980453;28;20069;-67
2023/02/06 03:38:08;;;;;;;6.38;2.60;;;;;;;4.73;66.01;100061.78;4961610;28;20125;-67
2023/02/06 03:40:34;;;;;;;6.85;2.20;;;;;;;4.79;65.81;100082.91;4977623;28;20098;-67
2023/02/06 03:43:02;;;;;;;9.05;2.40;;;;;;;4.76;66.75;100071.91;4978091;28;20101;-67
2023/02/06 03:45:30;;;;;;;5.93;2.60;;;;;;;4.76;66.70;100090.81;4975102;28;20035;-69
2023/02/06 03:48:01;;;;;;;7.65;2.38;;;;;;;4.68;66.48;100082.59;4984124;28;20034;-67
2023/02/06 03:50:27;;;;;;;6.55;2.60;;;;;;;4.71;66.50;100077.31;4978336;28;20125;-68
2023/02/06 03:52:55;;;;;;;9.23;2.58;;;;;;;4.82;66.64;100084.53;4964379;28;20177;-67
2023/02/06 03:55:22;;;;;;;7.25;2.50;;;;;;;4.65;66.52;100044.06;4979901;28;20097;-68
2023/02/06 03:57:52;;;;;;;6.90;2.70;;;;;;;4.76;65.98;100080.50;4979488;28;20027;-68
2023/02/06 04:00:18;;;;;;;6.72;2.58;;;;;;;4.79;65.64;100092.41;4968152;28;20031;-70
2023/02/06 04:02:45;;;;;;;5.25;2.17;;;;;;;4.79;65.46;100094.97;4976768;28;20070;-67
2023/02/06 04:05:10;;;;;;;6.53;2.13;;;;;;;4.84;64.93;100100.75;4980289;28;20184;-67
2023/02/06 04:07:36;;;;;;;6.55;2.60;;;;;;;4.77;65.23;100100.19;4974584;28;20046;-70
2023/02/06 04:10:02;;;;;;;6.80;2.50;;;;;;;4.55;64.52;100061.72;4969538;28;20666;-67
2023/02/06 04:12:28;;;;;;;6.90;2.20;;;;;;;4.76;65.47;100092.53;4967606;28;20473;-69
2023/02/06 04:14:53;;;;;;;5.28;2.10;;;;;;;4.73;64.60;100090.94;4969033;28;20084;-69
2023/02/06 04:17:18;;;;;;;9.38;2.30;;;;;;;4.59;64.58;100070.97;4961367;28;20117;-69
2023/02/06 04:19:44;;;;;;;5.93;2.58;;;;;;;4.51;65.04;100057.63;4965127;28;20587;-67
2023/02/06 04:22:14;;;;;;;5.38;2.10;;;;;;;4.66;64.68;100084.41;4987868;28;20034;-66
2023/02/06 04:24:40;;;;;;;9.13;3.20;;;;;;;4.62;64.64;100081.13;4982366;28;20124;-67
2023/02/06 04:27:11;;;;;;;5.38;2.70;;;;;;;4.75;64.50;100089.13;4985958;28;20133;-69
2023/02/06 04:29:37;;;;;;;6.53;2.33;;;;;;;4.65;64.74;100081.88;4981335;28;20050;-66
2023/02/06 04:32:03;;;;;;;5.07;2.58;;;;;;;4.62;65.28;100082.88;4983676;28;20034;-66
2023/02/06 04:34:32;;;;;;;11.18;2.40;;;;;;;4.70;64.49;100091.06;4993966;28;20035;-66
2023/02/06 04:36:58;;;;;;;6.45;2.40;;;;;;;4.70;64.88;100093.66;4965412;28;20204;-67
2023/02/06 04:39:24;;;;;;;5.93;2.47;;;;;;;4.37;64.23;100044.53;4980391;28;20088;-66
2023/02/06 04:41:50;;;;;;;5.55;2.47;;;;;;;4.64;64.37;100093.94;4971889;28;20121;-66
2023/02/06 04:44:15;;;;;;;6.72;2.53;;;;;;;4.55;64.31;100082.31;4966126;28;20049;-68
2023/02/06 04:46:42;;;;;;;8.48;2.53;;;;;;;4.65;64.47;100093.03;4978518;28;20482;-68
2023/02/06 04:49:08;;;;;;;6.32;1.88;;;;;;;4.72;64.48;100089.25;4974051;28;20036;-67
2023/02/06 04:51:33;;;;;;;5.38;2.15;;;;;;;4.68;64.04;100092.91;4966762;28;20050;-67
2023/02/06 04:54:00;;;;;;;8.77;2.30;;;;;;;4.60;64.39;100095.00;4978149;28;20034;-68
2023/02/06 04:56:26;;;;;;;5.10;2.20;;;;;;;4.57;63.82;100088.22;4978536;28;20476;-66
2023/02/06 04:58:51;;;;;;;5.07;1.92;;;;;;;4.39;63.32;100060.75;4984895;28;20034;-67
2023/02/06 05:01:17;;;;;;;6.50;2.05;;;;;;;4.66;63.21;100115.31;4973416;28;20074;-67
2023/02/06 05:03:42;;;;;;;7.55;2.47;;;;;;;4.67;62.75;100106.66;4963736;28;20149;-67
2023/02/06 05:06:08;;;;;;;6.70;2.78;;;;;;;4.68;62.23;100113.50;4965292;28;20030;-67
2023/02/06 05:08:33;;;;;;;6.22;2.40;;;;;;;4.69;63.38;100111.75;4983235;28;20044;-67
2023/02/06 05:10:59;;;;;;;7.68;2.47;;;;;;;4.71;63.58;100113.38;4982494;28;20496;-68
2023/02/06 05:13:24;;;;;;;6.70;2.53;;;;;;;4.72;64.28;100115.03;4981332;28;20026;-66
2023/02/06 05:15:50;;;;;;;8.70;2.20;;;;;;;4.67;63.72;100111.81;4969706;28;20042;-71
2023/02/06 05:18:16;;;;;;;7.22;2.50;;;;;;;4.52;63.83;100097.06;4980544;28;20037;-65
2023/02/06 05:20:42;;;;;;;8.73;2.60;;;;;;;4.57;63.54;100097.72;4972966;28;20030;-67
2023/02/06 05:23:07;;;;;;;6.13;2.25;;;;;;;4.58;63.85;100113.09;4966119;28;20018;-67
2023/02/06 05:25:33;;;;;;;6.97;2.60;;;;;;;4.61;63.74;100109.53;4966713;28;20038;-65
2023/02/06 05:27:59;;;;;;;5.95;1.80;;;;;;;4.61;62.73;100106.97;4973801;28;20030;-69
2023/02/06 05:30:24;;;;;;;6.05;2.50;;;;;;;4.65;61.85;100100.75;4986974;28;20472;-68
2023/02/06 05:32:50;;;;;;;6.00;2.50;;;;;;;4.64;62.81;100109.41;4991515;28;20041;-67
2023/02/06 05:35:16;;;;;;;6.40;3.00;;;;;;;4.70;63.09;100101.38;4973980;28;20077;-70
2023/02/06 05:37:41;;;;;;;6.15;2.95;;;;;;;4.63;63.40;100102.56;4962024;28;20201;-66
2023/02/06 05:40:08;;;;;;;5.78;2.20;;;;;;;4.68;63.02;100105.78;4981184;28;20096;-68
2023/02/06 05:42:33;;;;;;;7.47;2.13;;;;;;;4.65;63.17;100100.75;4963228;28;20058;-67
2023/02/06 05:44:59;;;;;;;5.95;1.98;;;;;;;4.52;62.56;100105.63;4980482;28;20114;-69
2023/02/06 05:47:24;;;;;;;7.93;2.90;;;;;;;4.55;63.56;100104.69;4980270;28;20059;-69
2023/02/06 05:49:50;;;;;;;6.90;2.53;;;;;;;4.60;63.10;100113.88;4977147;28;20042;-67
2023/02/06 05:52:15;;;;;;;7.43;2.03;;;;;;;4.50;62.43;100124.66;4961953;28;20038;-66
2023/02/06 05:54:41;;;;;;;7.15;2.47;;;;;;;4.31;63.19;100127.19;4961301;28;20053;-66
2023/02/06 05:57:06;;;;;;;4.78;1.80;;;;;;;4.29;63.33;100113.56;4964995;28;20493;-66
2023/02/06 05:59:32;;;;;;;7.15;2.05;;;;;;;4.52;63.02;100133.16;4977627;28;20147;-69
2023/02/06 06:01:57;;;;;;;4.82;1.77;;;;;;;4.34;63.20;100097.00;4978013;28;20034;-66
2023/02/06 06:04:23;;;;;;;6.55;1.98;;;;;;;4.18;62.48;100072.81;4977736;28;20598;-67
2023/02/06 06:06:49;;;;;;;7.68;2.13;;;;;;;4.57;62.80;100124.31;4969014;28;20113;-69
2023/02/06 06:09:14;;;;;;;8.15;2.72;;;;;;;4.61;63.02;100128.41;4977210;28;20053;-67
2023/02/06 06:11:39;;;;;;;7.00;2.35;;;;;;;4.63;62.97;100131.75;4981802;28;20030;-70
2023/02/06 06:14:05;;;;;;;6.70;2.40;;;;;;;4.68;62.90;100141.84;4978632;28;20026;-66
2023/02/06 06:16:30;;;;;;;5.00;2.28;;;;;;;4.40;62.34;100144.84;4997719;28;20072;-65
2023/02/06 06:18:56;;;;;;;5.32;1.95;;;;;;;4.48;63.01;100124.72;4967108;28;20121;-67
2023/02/06 06:21:22;;;;;;;8.82;2.20;;;;;;;4.54;63.31;100132.16;4980474;28;20041;-67
2023/02/06 06:23:48;;;;;;;9.07;2.33;;;;;;;4.39;62.53;100117.41;4960536;28;20275;-68
2023/02/06 06:26:13;;;;;;;7.35;2.50;;;;;;;4.52;63.17;100138.28;4973784;28;20497;-69
2023/02/06 06:28:39;;;;;;;5.70;1.90;;;;;;;4.55;62.99;100127.88;4972585;28;20489;-66
2023/02/06 06:31:08;;;;;;;4.65;2.00;;;;;;;4.47;62.24;100114.47;4961624;28;20466;-71
2023/02/06 06:33:33;;;;;;;5.78;2.13;;;;;;;4.61;62.59;100132.72;4981478;28;20290;-67
2023/02/06 06:35:59;;;;;;;7.20;1.85;;;;;;;4.58;62.30;100127.69;5008252;28;20386;-70
2023/02/06 06:38:24;;;;;;;6.32;2.38;;;;;;;4.28;61.93;100084.41;4969401;28;20049;-67
2023/02/06 06:40:51;;;;;;;6.28;2.03;;;;;;;4.56;61.83;100140.69;4974433;28;20069;-67
2023/02/06 06:43:16;;;;;;;7.07;1.77;;;;;;;4.39;62.16;100125.13;4966051;28;20561;-67
2023/02/06 06:45:42;;;;;;;9.48;2.30;;;;;;;4.49;62.18;100136.72;4966269;28;20177;-67
2023/02/06 06:48:07;;;;;;;6.35;2.25;;;;;;;4.24;62.29;100099.16;4979596;28;20022;-66
2023/02/06 06:50:33;;;;;;;7.32;2.13;;;;;;;3.98;62.43;100048.81;4958806;28;20038;-67
2023/02/06 06:52:58;;;;;;;6.00;2.10;;;;;;;4.67;62.41;100136.75;4966393;28;20030;-67
2023/02/06 06:55:23;;;;;;;6.53;2.17;;;;;;;4.41;62.09;100097.56;4975402;28;20534;-66
2023/02/06 06:57:49;;;;;;;5.38;1.90;;;;;;;4.68;61.92;100143.59;4972841;28;20034;-66
2023/02/06 07:00:15;;;;;;;5.50;2.30;;;;;;;4.67;62.48;100140.16;4966352;28;20121;-69
2023/02/06 07:02:41;;;;;;;12.00;4.30;;;;;;;4.72;61.95;100150.28;4987850;28;20037;-67
2023/02/06 07:05:07;;;;;;;11.52;5.60;;;;;;;4.74;62.09;100148.47;4963211;28;20038;-67
2023/02/06 07:07:32;;;;;;;11.50;5.63;;;;;;;4.66;61.69;100148.81;4982110;28;20037;-66
2023/02/06 07:09:58;;;;;;;17.02;9.10;;;;;;;4.74;61.74;100140.72;4978999;28;20524;-66
2023/02/06 07:12:25;;;;;;;14.05;6.68;;;;;;;4.68;62.05;100141.03;4970986;28;20038;-69
2023/02/06 07:14:50;;;;;;;8.77;4.05;;;;;;;4.40;62.14;100083.03;4977170;28;20038;-67
2023/02/06 07:17:15;;;;;;;7.32;3.05;;;;;;;4.63;61.67;100129.16;4970911;28;20038;-68
2023/02/06 07:19:41;;;;;;;11.50;2.50;;;;;;;4.69;62.17;100140.97;4956817;28;20030;-68
2023/02/06 07:22:06;;;;;;;7.57;2.28;;;;;;;4.65;61.35;100126.53;4984363;28;20531;-67
2023/02/06 07:24:32;;;;;;;10.10;2.25;;;;;;;4.73;62.60;100142.47;4980230;28;20124;-67
2023/02/06 07:26:57;;;;;;;6.30;2.17;;;;;;;4.67;62.31;100141.91;4953550;28;20035;-67
2023/02/06 07:29:23;;;;;;;7.60;2.60;;;;;;;4.36;62.55;100084.91;4986028;28;20085;-65
2023/02/06 07:31:48;;;;;;;7.15;2.25;;;;;;;4.67;62.40;100147.91;4979630;28;20035;-67
2023/02/06 07:34:15;;;;;;;7.43;2.20;;;;;;;4.62;61.29;100121.53;4992668;28;20034;-65
2023/02/06 07:36:41;;;;;;;7.75;2.20;;;;;;;4.62;61.56;100108.66;4991804;28;20469;-65
2023/02/06 07:39:07;;;;;;;7.18;2.10;;;;;;;4.60;61.36;100119.03;4987731;28;20489;-67
2023/02/06 07:41:32;;;;;;;5.53;2.20;;;;;;;4.73;61.24;100113.31;4985764;28;20160;-66
2023/02/06 07:43:58;;;;;;;6.13;2.20;;;;;;;4.76;61.67;100120.88;4979958;28;20107;-67
2023/02/06 07:46:23;;;;;;;5.30;2.03;;;;;;;4.74;61.77;100126.09;4983196;28;20042;-67
2023/02/06 07:48:49;;;;;;;9.02;2.88;;;;;;;4.77;61.43;100128.53;4982879;28;20170;-68
2023/02/06 07:51:14;;;;;;;7.03;2.17;;;;;;;4.76;61.20;100116.59;4984270;28;20030;-68
2023/02/06 07:53:40;;;;;;;6.35;2.42;;;;;;;4.79;61.25;100118.16;4981216;28;20499;-66
2023/02/06 07:56:13;;;;;;;5.90;1.92;;;;;;;4.57;61.16;100067.63;4981367;28;20045;-69
2023/02/06 07:58:39;;;;;;;6.07;2.30;;;;;;;4.73;60.20;100096.09;4978802;28;20038;-67
2023/02/06 08:01:05;;;;;;;6.43;2.72;;;;;;;4.89;60.95;100132.31;4978037;28;20026;-68
2023/02/06 08:03:50;;;;;;;6.68;2.10;;;;;;;4.93;61.36;100130.44;4964191;28;20034;-66
2023/02/06 08:06:17;;;;;;;6.13;2.25;;;;;;;4.96;60.63;100135.41;4979987;28;20050;-68
2023/02/06 08:08:43;;;;;;;7.38;2.40;;;;;;;4.86;60.20;100118.72;4958889;28;20034;-67
2023/02/06 08:11:11;;;;;;;4.88;2.00;;;;;;;4.84;60.37;100133.41;4962692;28;20093;-67
2023/02/06 08:13:37;;;;;;;5.78;2.33;;;;;;;4.85;59.83;100133.34;4971963;28;20018;-66
2023/02/06 08:16:08;;;;;;;5.57;2.25;;;;;;;4.81;60.67;100139.53;4984750;28;20034;-66
2023/02/06 08:18:35;;;;;;;5.47;2.70;;;;;;;4.94;60.53;100134.66;4957954;28;20058;-70
2023/02/06 08:21:04;;;;;;;5.82;2.33;;;;;;;4.87;60.99;100131.53;4976264;28;20031;-66
2023/02/06 08:23:30;;;;;;;8.10;2.58;;;;;;;4.66;61.17;100099.03;5002986;28;21250;-67
2023/02/06 08:26:16;;;;;;;5.90;3.00;;;;;;;4.90;60.45;100135.72;4974284;28;20038;-68
2023/02/06 08:28:44;;;;;;;7.90;2.55;;;;;;;4.96;60.47;100136.25;4976216;28;20058;-67
2023/02/06 08:31:18;;;;;;;5.80;2.40;;;;;;;4.87;60.13;100134.09;4968403;28;20761;-67
2023/02/06 08:33:44;;;;;;;7.72;2.83;;;;;;;4.86;60.30;100140.19;4964049;28;20103;-66
2023/02/06 08:36:10;;;;;;;6.85;2.70;;;;;;;4.86;60.55;100137.59;4981428;28;20133;-66
2023/02/06 08:38:36;;;;;;;6.97;2.78;;;;;;;4.92;60.40;100133.91;4979323;28;20034;-67
2023/02/06 08:41:02;;;;;;;5.35;2.55;;;;;;;4.79;60.95;100111.25;4976754;28;20049;-66
2023/02/06 08:43:27;;;;;;;8.73;2.63;;;;;;;5.04;60.18;100146.22;4981926;28;20446;-66
2023/02/06 08:45:58;;;;;;;6.95;2.95;;;;;;;5.12;60.28;100138.13;4977152;28;20030;-68
2023/02/06 08:48:24;;;;;;;7.60;3.10;;;;;;;5.10;60.03;100142.53;4976338;28;20022;-67
2023/02/06 08:50:50;;;;;;;6.32;2.72;;;;;;;5.13;59.79;100143.22;4970607;28;20103;-67
2023/02/06 08:53:15;;;;;;;6.28;2.40;;;;;;;4.97;60.26;100098.44;4975066;28;20595;-66
2023/02/06 08:55:41;;;;;;;5.55;2.55;;;;;;;5.36;59.59;100154.16;4977855;28;20039;-65
2023/02/06 08:58:06;;;;;;;5.93;2.58;;;;;;;5.35;59.22;100155.91;4981132;28;20541;-67
2023/02/06 09:00:32;;;;;;;8.88;2.80;;;;;;;5.29;58.74;100143.28;4978481;28;20077;-67
2023/02/06 09:02:57;;;;;;;7.35;2.33;;;;;;;5.36;58.89;100143.84;4980242;28;20033;-69
2023/02/06 09:05:23;;;;;;;8.82;3.92;;;;;;;5.13;58.99;100101.09;4982457;28;20032;-68
2023/02/06 09:07:49;;;;;;;6.00;2.83;;;;;;;5.49;58.50;100137.16;4983352;28;20100;-66
2023/02/06 09:10:15;;;;;;;6.80;2.88;;;;;;;5.45;58.78;100127.91;4978179;28;20665;-66
2023/02/06 09:12:40;;;;;;;7.72;2.60;;;;;;;5.34;58.86;100106.97;4984571;28;20029;-67
2023/02/06 09:15:06;;;;;;;6.40;2.83;;;;;;;5.56;58.59;100137.72;4957574;28;20057;-68
2023/02/06 09:17:32;;;;;;;7.63;3.25;;;;;;;5.51;58.33;100126.78;4955622;28;20242;-70
2023/02/06 09:19:58;;;;;;;5.38;2.35;;;;;;;5.58;58.02;100135.88;4967247;28;20085;-69
2023/02/06 09:22:24;;;;;;;6.35;2.60;;;;;;;5.48;57.80;100109.72;4949745;28;20030;-70
2023/02/06 09:24:49;;;;;;;5.72;2.28;;;;;;;5.64;57.39;100121.84;4966139;28;20038;-69
2023/02/06 09:27:15;;;;;;;8.77;2.45;;;;;;;5.62;57.07;100123.69;4965004;28;20038;-70
2023/02/06 09:29:40;;;;;;;9.25;2.50;;;;;;;5.56;56.53;100111.91;4964604;28;20058;-70
2023/02/06 09:32:06;;;;;;;6.32;2.08;;;;;;;5.54;56.25;100111.97;4966689;28;20041;-69
2023/02/06 09:34:31;;;;;;;7.35;1.98;;;;;;;5.59;56.38;100111.78;4965965;28;20034;-70
2023/02/06 09:36:57;;;;;;;6.35;2.00;;;;;;;5.62;55.56;100111.59;4965042;28;20133;-69
2023/02/06 09:39:23;;;;;;;5.93;1.90;;;;;;;5.63;54.99;100109.88;4964237;28;20093;-70
2023/02/06 09:41:52;;;;;;;7.68;2.03;;;;;;;5.72;53.83;100109.41;4956960;28;20058;-70
2023/02/06 09:44:26;;;;;;;8.55;1.60;;;;;;;5.69;52.82;100110.38;4950658;28;20097;-70
2023/02/06 09:47:04;;;;;;;6.15;1.70;;;;;;;5.66;52.63;100105.41;4963624;28;20035;-69
2023/02/06 09:49:41;;;;;;;6.20;2.15;;;;;;;5.69;53.23;100094.91;4973246;28;20042;-69
2023/02/06 09:52:37;;;;;;;5.63;2.28;;;;;;;5.80;53.39;100103.84;4949031;28;20091;-69
2023/02/06 09:55:14;;;;;;;5.97;2.17;;;;;;;5.36;53.61;100038.09;4963614;28;20026;-69
2023/02/06 09:57:50;;;;;;;5.32;2.25;;;;;;;5.80;53.79;100104.69;4965536;28;20127;-71
2023/02/06 10:00:37;;;;;;;5.95;1.90;;;;;;;5.85;53.27;100096.72;4964759;28;20030;-70
2023/02/06 10:03:27;;;;;;;4.78;2.10;;;;;;;5.87;53.66;100090.56;4965397;28;20030;-69
2023/02/06 10:06:22;;;;;;;7.13;2.50;;;;;;;5.88;53.74;100094.81;4964743;28;20081;-70
2023/02/06 10:09:11;;;;;;;5.65;2.08;;;;;;;5.88;53.70;100089.66;4972383;28;20018;-69
2023/02/06 10:11:50;;;;;;;9.00;2.13;;;;;;;5.86;53.35;100091.47;4949878;28;20570;-69
2023/02/06 10:14:31;;;;;;;5.65;2.20;;;;;;;5.73;53.22;100080.09;4972774;28;20114;-68
2023/02/06 10:16:59;;;;;;;6.80;2.35;;;;;;;5.81;53.29;100087.47;4961524;28;20039;-69
2023/02/06 10:19:38;;;;;;;6.28;2.47;;;;;;;5.90;53.82;100077.50;4972952;28;20057;-69
2023/02/06 10:22:28;;;;;;;6.63;2.47;;;;;;;5.90;54.63;100074.91;4947961;28;20133;-68
2023/02/06 10:25:09;;;;;;;7.60;2.95;;;;;;;5.90;54.29;100076.66;4978651;28;20130;-69
2023/02/06 10:27:36;;;;;;;10.93;2.70;;;;;;;6.01;54.13;100079.56;4964831;28;20026;-70
2023/02/06 10:30:02;;;;;;;5.60;2.72;;;;;;;5.58;54.53;100022.34;4956374;28;20651;-69
2023/02/06 10:32:47;;;;;;;6.15;2.65;;;;;;;5.99;53.86;100073.66;4966446;28;20038;-68
2023/02/06 10:35:28;;;;;;;5.93;2.78;;;;;;;5.69;53.99;100014.06;4965366;28;20643;-69
2023/02/06 10:38:06;;;;;;;5.65;2.70;;;;;;;6.01;53.88;100060.66;4955915;28;20102;-71
2023/02/06 10:41:16;;;;;;;7.00;2.83;;;;;;;5.92;53.91;100057.59;4964765;28;20078;-71
2023/02/06 10:43:47;;;;;;;7.93;2.42;;;;;;;6.00;53.59;100044.31;4973342;28;20862;-69
2023/02/06 10:46:19;;;;;;;7.45;3.10;;;;;;;5.89;54.13;100042.25;4956253;28;20038;-69
2023/02/06 10:48:59;;;;;;;7.07;2.75;;;;;;;5.87;53.80;100026.00;4965139;28;20026;-70
2023/02/06 10:51:27;;;;;;;;;;;;;;;5.93;53.60;100028.28;4949285;28;20118;-68
2023/02/06 10:53:56;;;;;;;7.45;3.10;;;;;;;5.85;54.10;100012.34;4969960;28;19913;-70
2023/02/06 10:56:26;;;;;;;9.07;3.10;;;;;;;5.61;54.07;100000.75;4970320;28;21035;-68
2023/02/06 10:58:59;;;;;;;7.60;3.15;;;;;;;5.73;54.66;100013.84;4978920;28;20030;-70
2023/02/06 11:01:25;;;;;;;7.32;3.20;;;;;;;5.86;54.11;100008.03;4946218;28;20030;-69
2023/02/06 11:04:13;;;;;;;7.43;2.72;;;;;;;5.75;54.36;99986.19;4979961;28;20026;-70
2023/02/06 11:06:41;;;;;;;5.78;2.90;;;;;;;5.90;54.01;100005.22;4960751;28;20119;-68
2023/02/06 11:09:08;;;;;;;7.32;3.47;;;;;;;5.81;53.94;100004.88;4965824;28;20745;-68
2023/02/06 11:11:40;;;;;;;8.05;2.97;;;;;;;5.82;53.99;100001.34;4968338;28;20026;-70
2023/02/06 11:14:15;;;;;;;7.15;2.78;;;;;;;5.86;54.04;100008.88;4964043;28;20149;-68
2023/02/06 11:16:41;;;;;;;6.63;3.00;;;;;;;5.96;52.61;100004.09;4967519;28;20418;-69
2023/02/06 11:19:25;;;;;;;6.55;2.83;;;;;;;5.70;53.34;99961.56;4966987;28;20158;-70
2023/02/06 11:22:13;;;;;;;7.38;2.88;;;;;;;5.97;53.21;100003.19;4962876;28;20035;-70
2023/02/06 11:25:06;;;;;;;5.30;2.78;;;;;;;5.88;53.02;100001.88;4950621;28;20035;-68
2023/02/06 11:27:33;;;;;;;5.90;2.60;;;;;;;5.99;52.13;99993.59;4951981;28;20034;-68
2023/02/06 11:30:05;;;;;;;6.43;2.78;;;;;;;5.94;52.28;99986.06;4973442;28;20030;-68
2023/02/06 11:32:35;;;;;;;6.40;3.50;;;;;;;5.96;52.32;99991.16;4954668;28;20070;-70
2023/02/06 11:35:15;;;;;;;6.30;3.17;;;;;;;5.79;52.47;99976.56;4949057;28;20068;-67
2023/02/06 11:37:41;;;;;;;6.25;3.10;;;;;;;5.71;52.00;99963.19;4966043;28;20093;-67
2023/02/06 11:40:15;;;;;;;8.50;2.80;;;;;;;5.81;52.46;99958.41;4947688;28;20114;-70
2023/02/06 11:42:41;;;;;;;6.00;2.85;;;;;;;5.96;52.30;99962.78;4969014;28;20030;-70
2023/02/06 11:45:24;;;;;;;5.75;2.55;;;;;;;5.71;51.87;99914.16;4967809;28;20088;-70